Time;durP1;ratioP1;P1;durP2;ratioP2;P2;SDS_P1;SDS_P2;PMS_P1;PMS_P2;Temp;Humidity;BMP_temperature;BMP_pressure;BME280_temperature;BME280_humidity;BME280_pressure;Samples;Min_cycle;Max_cycle;Signal;HPM_P1;HPM_P2
2022/04/16 00:02:02;;;;;;;1.98;0.50;;;;;;;19.59;30.80;101339.88;5020527;28;20030;-55
2022/04/16 00:04:29;;;;;;;0.75;0.50;;;;;;;19.56;31.80;101339.56;5020205;28;20018;-54
2022/04/16 00:06:56;;;;;;;1.50;0.47;;;;;;;19.46;31.47;101329.38;5015077;28;20432;-53
2022/04/16 00:09:23;;;;;;;1.17;0.63;;;;;;;19.36;32.50;101338.22;5025620;28;20468;-53
2022/04/16 00:11:50;;;;;;;2.28;0.57;;;;;;;19.37;33.30;101336.31;5026286;28;20064;-53
2022/04/16 00:14:17;;;;;;;1.30;0.57;;;;;;;19.43;33.66;101333.44;5032294;28;20033;-54
2022/04/16 00:16:46;;;;;;;2.83;0.57;;;;;;;19.21;30.52;101324.44;5030526;28;20112;-54
2022/04/16 00:19:13;;;;;;;0.93;0.45;;;;;;;19.13;31.32;101328.44;5024130;28;20033;-53
2022/04/16 00:21:39;;;;;;;2.63;0.88;;;;;;;18.99;32.75;101327.97;5020287;28;20396;-54
2022/04/16 00:24:07;;;;;;;2.03;0.85;;;;;;;18.69;33.01;101333.75;5034175;28;20021;-54
2022/04/16 00:26:40;;;;;;;1.33;0.60;;;;;;;18.94;32.41;101330.63;5027492;28;20022;-53
2022/04/16 00:29:07;;;;;;;4.82;0.60;;;;;;;18.85;32.79;101332.09;5018025;28;20392;-53
2022/04/16 00:31:34;;;;;;;2.78;0.68;;;;;;;18.72;31.55;101332.47;5012230;28;20030;-53
2022/04/16 00:34:01;;;;;;;1.35;0.70;;;;;;;18.47;33.52;101330.13;5012782;28;20112;-53
2022/04/16 00:36:27;;;;;;;0.68;0.38;;;;;;;18.47;32.79;101340.97;5019622;28;20112;-52
2022/04/16 00:38:53;;;;;;;1.23;0.40;;;;;;;18.39;34.25;101331.38;5021986;28;20499;-52
2022/04/16 00:41:22;;;;;;;1.52;0.43;;;;;;;18.38;34.55;101337.06;5025429;28;20484;-54
2022/04/16 00:43:52;;;;;;;2.03;0.50;;;;;;;18.27;33.15;101337.94;5027586;28;20022;-52
2022/04/16 00:46:19;;;;;;;3.03;0.50;;;;;;;17.96;32.84;101329.25;5014045;28;20022;-53
2022/04/16 00:48:45;;;;;;;1.15;0.60;;;;;;;17.78;33.33;101334.88;5031260;28;20052;-53
2022/04/16 00:51:13;;;;;;;3.10;0.70;;;;;;;17.65;35.71;101333.22;5030275;28;20033;-52
2022/04/16 00:53:41;;;;;;;3.15;0.70;;;;;;;17.46;35.69;101340.72;5019199;28;20113;-55
2022/04/16 00:56:10;;;;;;;2.45;0.60;;;;;;;17.04;36.24;101337.38;5030150;28;20033;-54
2022/04/16 00:58:40;;;;;;;2.10;0.65;;;;;;;16.39;36.27;101332.88;5024247;28;20036;-55
2022/04/16 01:01:06;;;;;;;2.83;0.70;;;;;;;16.67;36.86;101334.06;5023660;28;20029;-52
2022/04/16 01:03:33;;;;;;;2.53;0.70;;;;;;;16.18;38.21;101336.09;5014064;28;20030;-51
2022/04/16 01:05:59;;;;;;;3.08;0.63;;;;;;;16.14;37.22;101330.34;5014062;28;20403;-50
2022/04/16 01:08:25;;;;;;;0.60;0.47;;;;;;;15.77;39.07;101343.97;5014416;28;20038;-52
2022/04/16 01:10:51;;;;;;;1.65;0.60;;;;;;;15.73;39.11;101331.13;5019170;28;20380;-52
2022/04/16 01:13:18;;;;;;;1.13;0.43;;;;;;;15.57;38.55;101329.84;5027954;28;20113;-52
2022/04/16 01:15:45;;;;;;;1.58;0.45;;;;;;;15.81;40.14;101322.72;5022162;28;20482;-52
2022/04/16 01:18:12;;;;;;;1.75;0.50;;;;;;;15.66;39.81;101311.53;5024536;28;20485;-53
2022/04/16 01:20:41;;;;;;;2.45;0.68;;;;;;;15.64;41.10;101324.41;5023581;28;20037;-52
2022/04/16 01:23:08;;;;;;;2.40;0.68;;;;;;;15.27;39.87;101316.34;5033260;28;20361;-52
2022/04/16 01:25:36;;;;;;;1.10;0.60;;;;;;;15.33;40.02;101318.13;5028645;28;20469;-52
2022/04/16 01:28:03;;;;;;;0.90;0.68;;;;;;;15.28;40.62;101323.38;5021053;28;20393;-54
2022/04/16 01:30:29;;;;;;;4.72;1.80;;;;;;;15.36;41.90;101312.25;5033308;28;20054;-52
2022/04/16 01:32:56;;;;;;;3.63;0.93;;;;;;;15.34;42.27;101311.69;5028743;28;20034;-52
2022/04/16 01:35:22;;;;;;;2.88;0.77;;;;;;;15.29;42.29;101319.63;5032460;28;20465;-51
2022/04/16 01:37:48;;;;;;;3.20;0.90;;;;;;;15.23;42.47;101320.53;5012515;28;20034;-53
2022/04/16 01:40:15;;;;;;;1.88;0.80;;;;;;;15.11;43.52;101306.16;5016418;28;20034;-54
2022/04/16 01:42:46;;;;;;;2.35;0.55;;;;;;;15.12;41.95;101315.88;5025753;28;20033;-52
2022/04/16 01:45:18;;;;;;;1.40;0.65;;;;;;;14.79;42.71;101311.66;5012636;23;20093;-53
2022/04/16 01:47:44;;;;;;;4.88;0.80;;;;;;;14.14;44.15;101311.94;4993872;28;20037;-52
2022/04/16 01:50:11;;;;;;;3.03;0.73;;;;;;;13.78;47.48;101314.47;4994216;28;20113;-53
2022/04/16 01:52:39;;;;;;;3.13;0.90;;;;;;;13.64;48.77;101308.31;4994488;28;20026;-52
2022/04/16 01:55:07;;;;;;;4.53;0.63;;;;;;;13.51;48.85;101316.47;4993119;28;20022;-54
2022/04/16 01:57:33;;;;;;;4.28;1.13;;;;;;;13.31;49.77;101314.66;4993691;28;20023;-53
2022/04/16 02:00:00;;;;;;;6.00;0.95;;;;;;;13.63;49.53;101314.75;4984387;28;20113;-52
2022/04/16 02:02:26;;;;;;;4.50;1.05;;;;;;;13.39;49.26;101303.69;4993539;28;20100;-53
2022/04/16 02:04:52;;;;;;;2.22;0.73;;;;;;;12.87;51.06;101300.06;4993923;28;20049;-52
2022/04/16 02:07:18;;;;;;;3.33;0.80;;;;;;;13.02;51.08;101302.53;4993609;28;20038;-53
2022/04/16 02:09:45;;;;;;;3.53;0.93;;;;;;;13.13;51.11;101307.25;4993712;28;20069;-53
2022/04/16 02:12:13;;;;;;;2.35;0.82;;;;;;;12.87;51.84;101296.56;4991291;28;20061;-53
2022/04/16 02:14:39;;;;;;;4.00;0.95;;;;;;;12.94;50.98;101300.09;4990304;28;20112;-52
2022/04/16 02:17:05;;;;;;;2.33;0.65;;;;;;;12.92;50.89;101300.28;4991871;28;20062;-53
2022/04/16 02:19:33;;;;;;;1.77;0.95;;;;;;;12.60;50.77;101299.31;4988157;28;20034;-53
2022/04/16 02:22:00;;;;;;;5.53;1.48;;;;;;;12.40;51.70;101303.84;4992616;28;20032;-53
2022/04/16 02:24:27;;;;;;;2.28;0.73;;;;;;;11.91;52.57;101304.22;4989191;28;20125;-52
2022/04/16 02:26:55;;;;;;;3.75;1.40;;;;;;;12.21;52.74;101307.34;4986876;28;20390;-53
2022/04/16 02:29:22;;;;;;;2.30;1.10;;;;;;;12.40;52.82;101298.47;4988804;28;20077;-53
2022/04/16 02:31:48;;;;;;;3.35;0.70;;;;;;;12.53;52.72;101292.28;4989672;28;20036;-53
2022/04/16 02:34:16;;;;;;;3.05;0.82;;;;;;;12.45;52.10;101284.44;4993242;28;20096;-52
2022/04/16 02:36:43;;;;;;;2.55;1.17;;;;;;;12.16;53.50;101286.50;4992744;28;20029;-53
2022/04/16 02:39:10;;;;;;;2.40;0.95;;;;;;;11.87;52.81;101287.69;4988758;28;20109;-53
2022/04/16 02:41:36;;;;;;;2.95;0.90;;;;;;;11.87;52.38;101288.50;4993042;28;20085;-50
2022/04/16 02:44:02;;;;;;;2.40;0.95;;;;;;;11.66;52.82;101283.31;4991410;28;20026;-53
2022/04/16 02:49:13;;;;;;;3.47;1.23;;;;;;;11.80;53.20;101279.59;4978024;28;20110;-50
2022/04/16 02:51:39;;;;;;;4.05;1.75;;;;;;;11.92;52.59;101285.22;4986841;28;20494;-52
2022/04/16 02:54:05;;;;;;;1.55;0.98;;;;;;;12.01;52.25;101293.91;4992740;28;20026;-53
2022/04/16 02:56:32;;;;;;;2.78;0.75;;;;;;;11.96;52.05;101291.84;4992890;28;20474;-53
2022/04/16 02:58:59;;;;;;;1.98;0.70;;;;;;;12.08;51.16;101297.44;4975302;28;20101;-53
2022/04/16 03:01:25;;;;;;;3.80;0.82;;;;;;;12.08;51.10;101290.19;4986219;28;20069;-52
2022/04/16 03:03:51;;;;;;;2.90;0.80;;;;;;;12.07;51.73;101296.59;4973391;28;20031;-53
2022/04/16 03:06:17;;;;;;;5.20;1.13;;;;;;;12.08;51.64;101295.56;4972691;28;20038;-53
2022/04/16 03:08:43;;;;;;;5.88;0.95;;;;;;;12.03;52.49;101302.56;4978150;28;20030;-52
2022/04/16 03:11:10;;;;;;;2.20;0.90;;;;;;;12.21;52.88;101302.78;4986454;28;20110;-53
2022/04/16 03:13:36;;;;;;;3.40;0.90;;;;;;;12.22;53.32;101292.91;4974145;28;20097;-53
2022/04/16 03:18:47;;;;;;;2.10;0.88;;;;;;;12.19;54.36;101296.81;4992380;28;20418;-53
2022/04/16 03:21:13;;;;;;;7.97;1.10;;;;;;;12.17;55.68;101301.56;4980528;28;20049;-52
2022/04/16 03:23:40;;;;;;;4.57;1.00;;;;;;;12.17;55.05;101304.25;4979875;28;20062;-50
2022/04/16 03:26:06;;;;;;;4.82;0.88;;;;;;;11.96;56.11;101301.75;4979990;28;20414;-52
2022/04/16 03:28:33;;;;;;;5.15;1.13;;;;;;;12.06;55.61;101296.81;4992159;28;20030;-52
2022/04/16 03:31:00;;;;;;;3.50;0.90;;;;;;;11.99;56.54;101298.63;4992054;28;20397;-52
2022/04/16 03:33:26;;;;;;;4.35;0.98;;;;;;;12.02;56.44;101301.75;4992324;28;20046;-52
2022/04/16 03:35:52;;;;;;;5.18;1.20;;;;;;;11.99;55.81;101304.84;4990569;28;20466;-53
2022/04/16 03:38:19;;;;;;;3.85;1.33;;;;;;;12.02;56.15;101306.28;4973185;28;20394;-53
2022/04/16 03:40:48;;;;;;;2.30;0.63;;;;;;;11.93;56.55;101304.81;4972765;28;20031;-53
2022/04/16 03:43:14;;;;;;;3.92;1.00;;;;;;;12.02;56.08;101298.25;4980991;28;20033;-53
2022/04/16 03:45:41;;;;;;;3.42;0.93;;;;;;;12.02;56.38;101299.06;4991937;28;20162;-50
2022/04/16 03:48:08;;;;;;;5.00;1.10;;;;;;;12.06;55.96;101307.56;4992393;28;20026;-53
2022/04/16 03:50:35;;;;;;;2.05;1.00;;;;;;;11.97;56.16;101314.13;4992242;28;20018;-52
2022/04/16 03:53:02;;;;;;;3.78;1.10;;;;;;;11.75;57.10;101308.88;4992594;28;20474;-53
2022/04/16 04:01:03;;;;;;;5.07;1.00;;;;;;;11.91;56.90;101305.03;4992175;28;20061;-53
2022/04/16 04:03:29;;;;;;;5.45;1.50;;;;;;;11.92;57.10;101300.50;4992287;28;20057;-53
2022/04/16 04:05:57;;;;;;;5.22;1.17;;;;;;;11.83;57.56;101298.03;4992464;28;20030;-53
2022/04/16 04:08:24;;;;;;;7.43;1.05;;;;;;;11.93;57.45;101308.34;4991513;28;20057;-52
2022/04/16 04:10:50;;;;;;;4.47;1.25;;;;;;;11.98;57.29;101305.88;4991983;28;20026;-53
2022/04/16 04:13:17;;;;;;;6.32;1.27;;;;;;;12.08;57.02;101306.31;4992077;28;20080;-50
2022/04/16 04:15:44;;;;;;;4.93;1.08;;;;;;;12.05;56.55;101311.28;4992026;28;20023;-51
2022/04/16 04:18:11;;;;;;;3.63;0.75;;;;;;;12.03;55.66;101303.41;4992140;28;20085;-53
2022/04/16 04:20:37;;;;;;;2.05;1.00;;;;;;;12.11;55.41;101313.13;4995609;28;20034;-53
2022/04/16 04:23:04;;;;;;;4.20;1.15;;;;;;;11.92;56.04;101303.19;4995743;28;20030;-53
2022/04/16 04:25:30;;;;;;;3.53;0.60;;;;;;;11.93;56.62;101304.81;4995403;28;20069;-52
2022/04/16 04:27:57;;;;;;;1.35;0.68;;;;;;;11.92;56.63;101311.22;4995619;28;20038;-53
2022/04/16 04:30:23;;;;;;;2.53;0.80;;;;;;;12.07;56.35;101310.03;4995723;28;20037;-52
2022/04/16 04:32:50;;;;;;;3.88;1.60;;;;;;;11.96;56.53;101299.88;4995428;28;20022;-53
2022/04/16 04:35:16;;;;;;;3.60;1.40;;;;;;;11.97;57.30;101314.13;4995227;28;20040;-51
2022/04/16 04:37:42;;;;;;;3.58;1.17;;;;;;;12.04;56.94;101310.41;4995222;28;20062;-53
2022/04/16 04:40:09;;;;;;;2.13;0.95;;;;;;;11.89;57.71;101310.63;4990726;28;20425;-52
2022/04/16 04:42:36;;;;;;;2.55;0.77;;;;;;;11.77;58.60;101312.22;4995300;28;20385;-53
2022/04/16 04:45:16;;;;;;;4.20;1.40;;;;;;;11.79;58.35;101299.41;4994080;28;20096;-50
2022/04/16 04:47:42;;;;;;;2.85;0.98;;;;;;;11.72;58.69;101306.63;4995149;28;20089;-51
2022/04/16 04:50:09;;;;;;;3.70;1.00;;;;;;;11.84;58.14;101299.66;4995234;28;20034;-52
2022/04/16 04:52:37;;;;;;;3.13;0.90;;;;;;;11.79;58.30;101307.47;4995066;28;20382;-53
2022/04/16 04:55:07;;;;;;;3.42;1.20;;;;;;;11.85;58.53;101301.31;4993918;28;20026;-52
2022/04/16 04:57:34;;;;;;;1.88;0.80;;;;;;;11.58;59.62;101302.22;4993893;28;20037;-52
2022/04/16 05:00:00;;;;;;;4.57;1.30;;;;;;;11.69;58.86;101301.66;4994212;28;20123;-52
2022/04/16 05:02:26;;;;;;;6.45;1.30;;;;;;;11.78;58.61;101299.63;4988130;28;20105;-49
2022/04/16 05:04:52;;;;;;;4.85;0.90;;;;;;;11.74;59.20;101301.88;4994668;28;20306;-52
2022/04/16 05:07:18;;;;;;;4.38;0.90;;;;;;;11.78;59.45;101299.63;4993471;28;20034;-53
2022/04/16 05:09:44;;;;;;;3.75;1.08;;;;;;;11.77;59.05;101297.94;4994864;28;20034;-53
2022/04/16 05:12:11;;;;;;;3.25;1.27;;;;;;;11.83;59.26;101298.03;4980755;28;20027;-52
2022/04/16 05:14:37;;;;;;;6.40;0.90;;;;;;;11.85;59.20;101305.84;4975382;28;20046;-52
2022/04/16 05:17:04;;;;;;;4.00;1.35;;;;;;;11.82;59.28;101301.69;4989465;28;20035;-53
2022/04/16 05:19:30;;;;;;;3.17;1.15;;;;;;;11.79;58.92;101301.28;4994632;28;20477;-52
2022/04/16 05:21:56;;;;;;;5.43;1.10;;;;;;;11.79;59.40;101295.91;4990672;28;20035;-53
2022/04/16 05:24:22;;;;;;;3.85;1.17;;;;;;;11.91;58.94;101290.81;4974338;28;20443;-54
2022/04/16 05:26:48;;;;;;;3.47;1.15;;;;;;;11.74;59.72;101295.69;4985988;28;20030;-53
2022/04/16 05:29:15;;;;;;;7.75;1.27;;;;;;;11.76;59.67;101291.75;4991804;28;20053;-53
2022/04/16 05:31:41;;;;;;;2.63;1.25;;;;;;;11.79;59.66;101291.38;4994340;28;20057;-53
2022/04/16 05:34:20;;;;;;;5.25;1.40;;;;;;;11.74;60.27;101293.00;4993320;28;20041;-52
2022/04/16 05:36:48;;;;;;;4.45;1.30;;;;;;;11.67;60.10;101292.16;4992700;28;20030;-53
2022/04/16 05:39:16;;;;;;;5.60;1.40;;;;;;;11.76;59.62;101283.72;4980949;28;20390;-51
2022/04/16 05:41:42;;;;;;;7.55;1.38;;;;;;;11.79;59.96;101285.19;4994361;28;20585;-52
2022/04/16 05:44:08;;;;;;;3.85;1.30;;;;;;;11.76;59.88;101281.03;4992281;28;20045;-51
2022/04/16 05:46:34;;;;;;;3.78;1.02;;;;;;;11.85;59.73;101279.03;4993827;28;20109;-53
2022/04/16 05:49:01;;;;;;;4.50;1.70;;;;;;;11.84;59.85;101285.44;4992668;28;20421;-53
2022/04/16 05:51:27;;;;;;;6.57;1.33;;;;;;;11.92;58.90;101279.03;4991062;28;20034;-54
2022/04/16 05:53:54;;;;;;;4.72;1.30;;;;;;;11.90;59.12;101273.88;4994184;28;20031;-53
2022/04/16 05:56:21;;;;;;;5.80;1.45;;;;;;;11.82;59.26;101285.59;4993009;28;20037;-53
2022/04/16 05:58:47;;;;;;;11.90;1.35;;;;;;;11.89;58.81;101273.06;4994028;28;20030;-52
2022/04/16 06:01:14;;;;;;;7.75;1.40;;;;;;;11.91;58.81;101266.66;4992344;28;20398;-53
2022/04/16 06:03:41;;;;;;;5.80;1.20;;;;;;;11.88;59.60;101258.00;4993842;28;20132;-53
2022/04/16 06:06:08;;;;;;;3.80;1.33;;;;;;;11.89;59.28;101261.50;4992303;28;20492;-53
2022/04/16 06:08:34;;;;;;;4.72;1.15;;;;;;;11.81;59.10;101249.09;4993827;28;20045;-50
2022/04/16 06:11:01;;;;;;;6.47;1.25;;;;;;;11.98;59.35;101246.84;4992986;28;20478;-53
2022/04/16 06:13:30;;;;;;;4.70;1.42;;;;;;;11.87;59.99;101242.91;4993724;28;20065;-53
2022/04/16 06:15:56;;;;;;;5.45;1.10;;;;;;;11.98;59.52;101241.47;4991938;28;20295;-53
2022/04/16 06:18:23;;;;;;;4.60;1.15;;;;;;;11.98;59.51;101236.13;4985776;28;20465;-52
2022/04/16 06:20:49;;;;;;;4.65;1.10;;;;;;;11.95;60.27;101230.34;4992424;28;20038;-53
2022/04/16 06:23:16;;;;;;;6.07;1.38;;;;;;;12.13;59.19;101228.69;4992035;28;20026;-53
2022/04/16 06:25:42;;;;;;;2.50;1.02;;;;;;;12.20;59.12;101234.06;4993211;28;20027;-53
2022/04/16 06:28:08;;;;;;;2.40;0.93;;;;;;;12.27;58.82;101234.91;4990336;28;20030;-54
2022/04/16 06:30:34;;;;;;;4.03;1.00;;;;;;;12.39;59.22;101237.78;4975994;28;20027;-50
2022/04/16 06:33:00;;;;;;;1.98;0.65;;;;;;;12.44;58.97;101246.03;4975569;28;20096;-53
2022/04/16 06:35:27;;;;;;;4.13;1.30;;;;;;;12.40;58.82;101242.94;4972708;28;20394;-53
2022/04/16 06:37:53;;;;;;;2.80;1.23;;;;;;;12.35;60.00;101240.03;4974941;28;20041;-52
2022/04/16 06:40:19;;;;;;;3.20;1.00;;;;;;;12.36;59.28;101232.81;4974807;28;20061;-53
2022/04/16 06:42:45;;;;;;;6.82;1.00;;;;;;;12.22;60.29;101226.66;4973068;28;20426;-53
2022/04/16 06:45:12;;;;;;;8.18;1.38;;;;;;;12.22;60.94;101220.44;4973437;28;20050;-52
2022/04/16 06:47:39;;;;;;;4.68;1.58;;;;;;;12.35;59.87;101221.25;4973505;28;20118;-51
2022/04/16 06:50:07;;;;;;;3.45;1.00;;;;;;;12.40;59.61;101210.72;4974303;28;20027;-53
2022/04/16 06:52:33;;;;;;;8.25;1.10;;;;;;;12.45;60.10;101214.66;4973093;28;20031;-49
2022/04/16 06:55:00;;;;;;;10.77;1.05;;;;;;;12.42;60.45;101205.94;4974295;28;20474;-53
2022/04/16 06:57:27;;;;;;;4.63;1.52;;;;;;;12.33;60.82;101207.22;4973466;28;20394;-52
2022/04/16 06:59:53;;;;;;;5.53;1.17;;;;;;;12.38;60.57;101191.31;4976987;28;20045;-51
2022/04/16 07:02:19;;;;;;;3.67;1.00;;;;;;;12.56;60.38;101187.16;4972944;28;20470;-51
2022/04/16 07:04:46;;;;;;;5.60;1.35;;;;;;;12.43;60.33;101190.66;4974942;28;20034;-52
2022/04/16 07:07:12;;;;;;;2.20;0.85;;;;;;;12.28;60.90;101190.91;4980007;28;20478;-52
2022/04/16 07:09:39;;;;;;;5.00;1.00;;;;;;;12.26;60.99;101192.97;4991579;28;20045;-52
2022/04/16 07:12:07;;;;;;;3.85;1.02;;;;;;;12.32;60.45;101186.75;4992722;28;20035;-53
2022/04/16 07:14:34;;;;;;;2.97;1.00;;;;;;;12.33;60.76;101185.75;4991242;28;20054;-52
2022/04/16 07:17:01;;;;;;;4.97;1.48;;;;;;;12.21;61.24;101181.22;4992074;28;20422;-53
2022/04/16 07:19:31;;;;;;;2.47;1.30;;;;;;;12.41;60.70;101176.63;4992341;28;20037;-51
2022/04/16 07:21:58;;;;;;;3.80;1.10;;;;;;;12.32;60.99;101177.88;4992298;28;20045;-53
2022/04/16 07:24:27;;;;;;;2.60;1.20;;;;;;;12.36;60.73;101168.38;4991981;28;20458;-52
2022/04/16 07:26:55;;;;;;;2.45;1.10;;;;;;;12.39;61.15;101170.66;4991099;28;20077;-52
2022/04/16 07:29:25;;;;;;;5.20;1.33;;;;;;;12.36;61.35;101169.22;4990290;28;20037;-52
2022/04/16 07:31:52;;;;;;;3.53;1.13;;;;;;;12.27;61.79;101156.22;4992374;28;20030;-53
2022/04/16 07:34:18;;;;;;;1.52;0.90;;;;;;;12.39;61.92;101143.81;4989535;28;20042;-51
2022/04/16 07:36:46;;;;;;;2.03;1.23;;;;;;;12.28;62.33;101139.94;4992211;28;20022;-53
2022/04/16 07:39:13;;;;;;;3.20;1.10;;;;;;;12.35;61.27;101143.41;4974613;28;20041;-53
2022/04/16 07:41:40;;;;;;;3.42;1.60;;;;;;;12.39;62.30;101141.97;4989925;28;20054;-52
2022/04/16 07:44:07;;;;;;;3.33;1.48;;;;;;;12.30;62.28;101139.69;4991880;28;20030;-52
2022/04/16 07:46:34;;;;;;;4.25;1.42;;;;;;;12.23;62.64;101142.41;4992089;28;20077;-51
2022/04/16 07:49:02;;;;;;;3.08;1.70;;;;;;;12.23;62.60;101137.03;4991052;28;20069;-51
2022/04/16 07:51:29;;;;;;;5.28;1.80;;;;;;;12.27;61.87;101127.53;4992508;28;20085;-50
2022/04/16 07:53:56;;;;;;;4.70;2.20;;;;;;;12.21;61.33;101123.00;4976624;28;20118;-51
2022/04/16 07:56:23;;;;;;;3.40;1.98;;;;;;;12.23;61.12;101112.06;4992713;28;20030;-53
2022/04/16 07:58:50;;;;;;;10.32;2.75;;;;;;;12.25;61.15;101108.13;4995828;28;20072;-52
2022/04/16 08:01:16;;;;;;;2.90;1.80;;;;;;;12.14;62.24;101108.78;4996346;28;20510;-50
2022/04/16 08:03:43;;;;;;;5.35;1.40;;;;;;;12.16;64.37;101120.13;4995780;28;20389;-51
2022/04/16 08:06:09;;;;;;;2.50;1.38;;;;;;;12.29;65.79;101119.28;4995700;28;20421;-50
2022/04/16 08:08:35;;;;;;;3.80;1.15;;;;;;;12.41;67.08;101118.41;4996115;28;20022;-53
2022/04/16 08:11:02;;;;;;;1.95;0.95;;;;;;;12.51;67.34;101111.78;4991958;28;20034;-53
2022/04/16 08:13:28;;;;;;;3.90;1.00;;;;;;;12.61;67.81;101106.78;4976675;28;20106;-52
2022/04/16 08:15:54;;;;;;;3.17;1.08;;;;;;;12.68;67.32;101089.59;4989860;28;20471;-51
2022/04/16 08:18:21;;;;;;;4.18;1.02;;;;;;;12.65;67.97;101095.38;4995610;28;20023;-51
2022/04/16 08:20:47;;;;;;;5.63;0.82;;;;;;;12.72;67.50;101097.25;4995721;28;20036;-52
2022/04/16 08:23:14;;;;;;;5.53;1.70;;;;;;;12.86;67.82;101110.38;4996236;28;20034;-53
2022/04/16 08:28:08;;;;;;;3.25;1.27;;;;;;;12.88;66.26;101105.63;4995827;28;20022;-53
2022/04/16 08:30:35;;;;;;;3.40;1.52;;;;;;;12.88;65.01;101086.81;4985483;28;20034;-52
2022/04/16 08:33:01;;;;;;;3.90;1.33;;;;;;;12.77;64.79;101095.56;4990193;28;20053;-52
2022/04/16 08:35:27;;;;;;;6.25;1.30;;;;;;;12.77;64.87;101095.56;4995473;28;20046;-51
2022/04/16 08:37:54;;;;;;;4.78;1.65;;;;;;;12.88;64.42;101081.44;4995422;28;20027;-49
2022/04/16 08:40:20;;;;;;;2.92;1.00;;;;;;;12.88;64.11;101062.66;4995367;28;20085;-52
2022/04/16 08:42:51;;;;;;;5.57;1.20;;;;;;;12.91;63.72;101067.56;4995102;28;20034;-51
2022/04/16 08:45:18;;;;;;;2.67;1.00;;;;;;;12.91;62.51;101059.50;4988291;28;20055;-53
2022/04/16 08:47:45;;;;;;;2.70;0.95;;;;;;;12.82;62.77;101068.84;4975756;28;20037;-53
2022/04/16 08:50:13;;;;;;;2.38;0.80;;;;;;;12.93;61.68;101052.03;4990800;28;20038;-53
2022/04/16 08:52:41;;;;;;;1.90;0.90;;;;;;;12.91;61.59;101047.94;4995613;28;20096;-52
2022/04/16 08:55:10;;;;;;;2.72;1.00;;;;;;;12.99;61.32;101050.34;4993506;28;20037;-52
2022/04/16 08:57:37;;;;;;;2.78;1.15;;;;;;;12.82;60.87;101047.34;4995172;28;20030;-53
2022/04/16 09:00:04;;;;;;;3.67;0.82;;;;;;;12.73;60.99;101047.84;4993679;28;20054;-52
2022/04/16 09:02:30;;;;;;;2.47;1.10;;;;;;;12.59;61.90;101041.72;4994459;28;20152;-53
2022/04/16 09:05:02;;;;;;;3.22;1.10;;;;;;;12.75;61.49;101041.22;4993231;28;20023;-53
2022/04/16 09:07:28;;;;;;;3.13;0.98;;;;;;;12.81;62.33;101043.03;4993513;28;20433;-51
2022/04/16 09:10:06;;;;;;;3.47;0.98;;;;;;;12.92;62.38;101031.59;4993833;28;20041;-52
2022/04/16 09:12:37;;;;;;;2.88;0.90;;;;;;;12.94;62.57;101029.53;4993864;28;20041;-54
2022/04/16 09:15:13;;;;;;;2.72;0.95;;;;;;;12.87;63.26;101025.22;4992996;28;20552;-53
2022/04/16 09:17:40;;;;;;;3.03;0.90;;;;;;;13.05;64.06;101021.81;4994682;28;20022;-53
2022/04/16 09:20:10;;;;;;;3.30;1.30;;;;;;;13.05;64.55;101011.91;4992339;28;20034;-52
2022/04/16 09:22:38;;;;;;;2.60;1.20;;;;;;;12.99;65.28;101009.22;4994771;28;20470;-51
2022/04/16 09:25:15;;;;;;;3.90;1.67;;;;;;;13.04;64.54;100999.47;4993263;28;20125;-53
2022/04/16 09:27:47;;;;;;;2.15;1.30;;;;;;;13.00;64.53;100992.91;4994662;28;20023;-53
2022/04/16 09:30:22;;;;;;;3.28;1.23;;;;;;;12.98;65.39;100994.97;4993282;28;20433;-52
2022/04/16 09:32:48;;;;;;;3.42;1.48;;;;;;;13.11;65.20;100984.16;4993603;28;20076;-52
2022/04/16 09:35:33;;;;;;;4.75;1.20;;;;;;;13.21;65.14;100986.34;5008212;23;20417;-52
2022/04/16 09:38:01;;;;;;;5.63;1.00;;;;;;;13.24;65.92;100979.72;4995396;28;20034;-53
2022/04/16 09:40:32;;;;;;;3.70;0.85;;;;;;;13.18;66.60;100984.09;5007656;28;20041;-53
2022/04/16 09:43:04;;;;;;;2.80;0.90;;;;;;;13.19;67.88;100969.59;4996278;28;20443;-53
2022/04/16 09:45:30;;;;;;;2.08;0.80;;;;;;;13.29;68.40;100959.22;5013348;28;20017;-53
2022/04/16 09:47:58;;;;;;;2.28;0.70;;;;;;;13.27;70.02;100953.25;5012766;28;20030;-54
2022/04/16 09:50:27;;;;;;;1.67;0.68;;;;;;;13.32;70.37;100953.38;5013709;28;20025;-53
2022/04/16 09:52:55;;;;;;;1.60;0.50;;;;;;;13.37;70.32;100945.47;5012987;28;20038;-53
2022/04/16 09:55:26;;;;;;;2.65;0.75;;;;;;;13.39;70.65;100947.97;5013523;28;20030;-53
2022/04/16 09:57:52;;;;;;;3.33;0.80;;;;;;;13.40;70.65;100936.97;5013278;28;20326;-51
2022/04/16 10:00:19;;;;;;;1.70;0.50;;;;;;;13.36;71.60;100940.31;5012280;28;20034;-53
2022/04/16 10:02:46;;;;;;;1.38;0.63;;;;;;;13.47;72.00;100934.22;5013527;28;20522;-53
2022/04/16 10:05:13;;;;;;;3.97;1.10;;;;;;;13.24;74.97;100945.59;5013484;28;20041;-53
2022/04/16 10:07:42;;;;;;;4.05;0.90;;;;;;;13.29;76.11;100936.88;4996752;28;20034;-52
2022/04/16 10:10:17;;;;;;;2.47;0.88;;;;;;;13.09;76.99;100928.94;4993699;28;20363;-51
2022/04/16 10:13:00;;;;;;;;;;;;;;;13.07;78.27;100929.19;5013055;28;20042;-50
2022/04/16 10:15:42;;;;;;;3.67;0.77;;;;;;;12.90;80.33;100939.66;5012692;28;19914;-51
2022/04/16 10:18:11;;;;;;;1.40;0.70;;;;;;;12.91;80.78;100917.13;5013601;28;20077;-51
2022/04/16 10:20:38;;;;;;;1.65;0.60;;;;;;;12.92;81.35;100926.00;5005644;28;20697;-50
2022/04/16 10:23:05;;;;;;;2.50;0.70;;;;;;;12.86;81.73;100910.75;4993454;28;20054;-50
2022/04/16 10:25:39;;;;;;;3.03;0.82;;;;;;;12.77;82.63;100907.53;4992072;28;20034;-49
2022/04/16 10:28:08;;;;;;;3.17;0.90;;;;;;;12.69;83.45;100905.94;4993466;28;20478;-50
2022/04/16 10:30:40;;;;;;;5.25;0.75;;;;;;;12.82;82.54;100901.47;4991504;28;20477;-48
2022/04/16 10:33:21;;;;;;;1.25;1.00;;;;;;;12.78;82.81;100903.81;4993664;28;20104;-49
2022/04/16 10:35:58;;;;;;;2.75;1.05;;;;;;;12.65;82.58;100893.97;4992164;28;20046;-50
2022/04/16 10:38:31;;;;;;;3.47;1.60;;;;;;;12.51;83.08;100887.06;4991484;28;20026;-49
2022/04/16 10:41:02;;;;;;;2.90;1.02;;;;;;;12.54;82.74;100893.84;4993016;28;20026;-51
2022/04/16 10:43:35;;;;;;;4.10;1.20;;;;;;;12.34;84.29;100886.78;4991322;28;20037;-49
2022/04/16 10:46:04;;;;;;;5.05;1.00;;;;;;;12.38;84.38;100885.31;4989869;28;20056;-51
2022/04/16 10:48:36;;;;;;;2.13;1.00;;;;;;;12.51;83.79;100883.56;4974227;28;20545;-50
2022/04/16 10:51:06;;;;;;;3.20;0.95;;;;;;;12.54;83.53;100888.47;4973814;28;20023;-51
2022/04/16 10:53:35;;;;;;;4.93;0.95;;;;;;;12.54;83.45;100897.34;4981361;28;20030;-48
2022/04/16 10:56:12;;;;;;;5.15;1.67;;;;;;;12.53;83.89;100914.50;4992144;28;20073;-49
2022/04/16 10:58:43;;;;;;;3.85;1.20;;;;;;;12.46;84.78;100907.56;4991983;28;20478;-48
2022/04/16 11:01:11;;;;;;;2.65;1.30;;;;;;;12.37;84.42;100902.41;4992530;28;20614;-51
2022/04/16 11:03:45;;;;;;;3.67;1.33;;;;;;;12.26;84.90;100903.13;4991551;28;20101;-52
2022/04/16 11:06:12;;;;;;;3.60;1.57;;;;;;;12.23;85.40;100897.38;4973002;28;20110;-48
2022/04/16 11:08:40;;;;;;;1.35;1.10;;;;;;;12.22;84.55;100895.72;4979447;28;20312;-49
2022/04/16 11:11:08;;;;;;;3.55;1.40;;;;;;;12.21;84.45;100899.44;4991280;28;20101;-49
2022/04/16 11:13:39;;;;;;;6.55;1.70;;;;;;;12.04;85.18;100883.81;4991979;28;20027;-51
2022/04/16 11:16:06;;;;;;;4.38;1.80;;;;;;;11.86;86.13;100886.41;4992208;28;20030;-48
2022/04/16 11:18:42;;;;;;;6.90;2.10;;;;;;;11.96;85.63;100870.69;4992195;28;20030;-51
2022/04/16 11:21:29;;;;;;;4.55;2.05;;;;;;;11.85;85.58;100877.53;4992290;28;20521;-49
2022/04/16 11:23:55;;;;;;;6.32;1.95;;;;;;;11.95;85.63;100881.63;4992339;28;20037;-48
2022/04/16 11:34:55;;;;;;;4.70;1.17;;;;;;;11.79;86.99;100875.69;4990699;28;20186;-51
2022/04/16 11:37:21;;;;;;;3.40;1.30;;;;;;;11.83;87.42;100879.63;4991333;28;20066;-51
2022/04/16 11:40:01;;;;;;;4.03;1.63;;;;;;;11.75;88.37;100890.53;4991898;28;20048;-48
2022/04/16 11:42:28;;;;;;;1.58;0.95;;;;;;;11.90;88.41;100898.34;4988183;28;20061;-50
2022/04/16 11:44:56;;;;;;;2.47;1.05;;;;;;;11.89;88.34;100896.72;4991949;28;20030;-48
2022/04/16 11:47:27;;;;;;;1.80;1.02;;;;;;;12.06;87.50;100894.38;4991325;28;20026;-51
2022/04/16 11:49:55;;;;;;;2.53;1.13;;;;;;;12.17;87.01;100907.09;4992101;28;20038;-48